Time;durP1;ratioP1;P1;durP2;ratioP2;P2;SDS_P1;SDS_P2;PMS_P1;PMS_P2;Temp;Humidity;BMP_temperature;BMP_pressure;BME280_temperature;BME280_humidity;BME280_pressure;Samples;Min_cycle;Max_cycle;Signal;HPM_P1;HPM_P2
2023/01/27 00:02:02;;;;;;;43.20;15.10;;;;;;;2.13;100.00;101536.48;107848;1259;71140;-83
2023/01/27 00:04:34;;;;;;;41.40;15.90;;;;;;;2.14;100.00;101535.05;107839;1265;60106;-83
2023/01/27 00:07:07;;;;;;;38.40;14.10;;;;;;;2.12;100.00;101530.81;108481;1257;61316;-84
2023/01/27 00:09:40;;;;;;;43.90;15.70;;;;;;;2.09;100.00;101526.96;108224;1259;74497;-83
2023/01/27 00:15:05;;;;;;;45.00;16.40;;;;;;;2.04;100.00;101523.61;108739;1258;72499;-84
2023/01/27 00:17:35;;;;;;;40.80;14.70;;;;;;;2.03;100.00;101527.14;108649;1258;62010;-84
2023/01/27 00:20:03;;;;;;;48.00;16.30;;;;;;;2.00;100.00;101524.90;108786;1259;59262;-84
2023/01/27 00:25:23;;;;;;;44.10;15.40;;;;;;;1.98;100.00;101521.52;108673;1255;71181;-83
2023/01/27 00:27:51;;;;;;;42.50;14.80;;;;;;;2.01;100.00;101517.52;108584;1257;72671;-83
2023/01/27 00:30:18;;;;;;;43.80;14.90;;;;;;;2.03;100.00;101516.02;108639;1259;61319;-84
2023/01/27 00:35:31;;;;;;;37.70;14.30;;;;;;;2.09;100.00;101515.10;108843;1259;75339;-83
2023/01/27 00:37:59;;;;;;;35.60;13.50;;;;;;;2.12;100.00;101515.95;108756;1259;70452;-83
2023/01/27 00:40:26;;;;;;;34.10;12.80;;;;;;;2.15;100.00;101510.89;108793;1257;71466;-83
2023/01/27 00:42:53;;;;;;;29.90;12.00;;;;;;;2.18;100.00;101519.02;108762;1258;59675;-84
2023/01/27 00:48:06;;;;;;;32.40;13.30;;;;;;;2.23;100.00;101518.02;108741;1258;73167;-83
2023/01/27 00:50:34;;;;;;;31.70;12.90;;;;;;;2.25;100.00;101518.43;108742;1259;71440;-83
2023/01/27 00:53:01;;;;;;;32.20;12.50;;;;;;;2.28;100.00;101522.41;108736;1258;72386;-83
2023/01/27 00:55:29;;;;;;;38.60;13.70;;;;;;;2.28;100.00;101522.23;108644;1259;62091;-83
2023/01/27 00:57:57;;;;;;;33.00;12.60;;;;;;;2.30;100.00;101525.78;108649;1258;59430;-83
2023/01/27 01:00:24;;;;;;;31.50;13.30;;;;;;;2.31;100.00;101534.10;108716;1258;74548;-83
2023/01/27 01:02:51;;;;;;;31.90;11.70;;;;;;;2.30;100.00;101536.07;108730;1262;69496;-83
2023/01/27 01:05:19;;;;;;;31.20;11.80;;;;;;;2.32;100.00;101541.16;108705;1257;72677;-83
2023/01/27 01:10:24;;;;;;;28.10;11.70;;;;;;;2.33;100.00;101542.11;106768;1262;61178;-76
2023/01/27 01:12:51;;;;;;;28.00;11.80;;;;;;;2.34;100.00;101543.79;106639;1262;74130;-76
2023/01/27 01:15:18;;;;;;;31.20;12.00;;;;;;;2.34;100.00;101549.94;106649;1261;71095;-75
2023/01/27 01:17:45;;;;;;;29.90;11.70;;;;;;;2.34;100.00;101547.15;106984;1262;73905;-76
2023/01/27 01:20:12;;;;;;;31.40;13.20;;;;;;;2.34;100.00;101551.52;106725;1262;61131;-75
2023/01/27 01:22:39;;;;;;;30.20;11.80;;;;;;;2.35;100.00;101551.99;106929;1260;61233;-76
2023/01/27 01:25:07;;;;;;;23.00;11.10;;;;;;;2.33;100.00;101551.20;106900;1262;74409;-76
2023/01/27 01:27:34;;;;;;;26.70;11.20;;;;;;;2.32;100.00;101557.08;107119;1260;69691;-76
2023/01/27 01:30:01;;;;;;;27.90;11.90;;;;;;;2.31;100.00;101559.88;106606;1265;71146;-75
2023/01/27 01:32:28;;;;;;;26.20;12.20;;;;;;;2.33;100.00;101567.60;106668;1260;61373;-76
2023/01/27 01:34:55;;;;;;;24.60;11.50;;;;;;;2.33;100.00;101563.59;107258;1260;61175;-75
2023/01/27 01:37:23;;;;;;;25.30;10.80;;;;;;;2.31;100.00;101561.83;107239;1263;73497;-76
2023/01/27 01:39:50;;;;;;;23.00;10.50;;;;;;;2.32;100.00;101558.60;106834;1260;71908;-74
2023/01/27 01:42:17;;;;;;;24.10;11.30;;;;;;;2.31;100.00;101565.02;106653;1262;72478;-75
2023/01/27 01:44:44;;;;;;;19.80;9.50;;;;;;;2.31;100.00;101562.20;106802;1261;62025;-75
2023/01/27 01:47:15;;;;;;;22.30;9.70;;;;;;;2.29;100.00;101559.36;106792;1262;62508;-75
2023/01/27 01:49:45;;;;;;;21.80;10.10;;;;;;;2.30;100.00;101553.89;106806;1261;73599;-76
2023/01/27 01:52:21;;;;;;;22.50;10.00;;;;;;;2.31;100.00;101556.59;106909;1264;70924;-74
2023/01/27 01:54:54;;;;;;;18.40;9.10;;;;;;;2.31;100.00;101553.80;107010;1261;70986;-75
2023/01/27 01:57:31;;;;;;;23.30;9.80;;;;;;;2.32;100.00;101557.23;107061;1260;61255;-76
2023/01/27 02:00:06;;;;;;;18.20;9.80;;;;;;;2.33;100.00;101563.24;106670;1265;61259;-78
2023/01/27 02:02:33;;;;;;;20.60;10.20;;;;;;;2.35;100.00;101564.04;107113;1260;73751;-76
2023/01/27 02:05:07;;;;;;;21.90;9.60;;;;;;;2.35;100.00;101562.64;107092;1262;70329;-75
2023/01/27 02:07:39;;;;;;;21.00;9.90;;;;;;;2.37;100.00;101561.10;106692;1262;72730;-75
2023/01/27 02:10:06;;;;;;;19.80;10.10;;;;;;;2.36;100.00;101567.25;106999;1261;61275;-75
2023/01/27 02:12:33;;;;;;;20.20;9.90;;;;;;;2.37;100.00;101564.55;107290;1259;59279;-75
2023/01/27 02:15:00;;;;;;;22.50;10.50;;;;;;;2.38;100.00;101560.34;106749;1260;75288;-75
2023/01/27 02:17:35;;;;;;;20.10;9.80;;;;;;;2.37;100.00;101562.27;106696;1259;70873;-76
2023/01/27 02:20:14;;;;;;;20.50;10.20;;;;;;;2.37;100.00;101560.73;107023;1263;73300;-74
2023/01/27 02:22:54;;;;;;;20.70;9.50;;;;;;;2.37;100.00;101558.26;107131;1259;61331;-76
2023/01/27 02:25:28;;;;;;;20.40;9.10;;;;;;;2.39;100.00;101566.38;107431;1258;61746;-76
2023/01/27 02:27:55;;;;;;;18.00;8.60;;;;;;;2.38;100.00;101564.30;107697;1264;73741;-75
2023/01/27 02:30:23;;;;;;;17.60;9.10;;;;;;;2.39;100.00;101564.58;107849;1259;69656;-75
2023/01/27 02:32:50;;;;;;;15.20;8.20;;;;;;;2.41;100.00;101566.43;107535;1259;71149;-74
2023/01/27 02:35:26;;;;;;;16.70;8.10;;;;;;;2.40;100.00;101564.37;107797;1259;61477;-75
2023/01/27 02:37:53;;;;;;;19.10;9.00;;;;;;;2.43;100.00;101569.24;107232;1265;61141;-75
2023/01/27 02:40:21;;;;;;;18.40;9.10;;;;;;;2.47;100.00;101569.02;107634;1260;74481;-74
2023/01/27 02:42:49;;;;;;;19.40;9.70;;;;;;;2.50;100.00;101569.88;107698;1259;70324;-74
2023/01/27 02:45:15;;;;;;;19.60;9.60;;;;;;;2.54;100.00;101567.64;107820;1263;71731;-75
2023/01/27 02:47:42;;;;;;;21.40;9.90;;;;;;;2.58;100.00;101564.11;107878;1261;61164;-75
2023/01/27 02:50:10;;;;;;;19.10;9.60;;;;;;;2.61;100.00;101568.06;107441;1259;61252;-75
2023/01/27 02:52:36;;;;;;;19.00;9.30;;;;;;;2.66;100.00;101571.08;106962;1265;73405;-75
2023/01/27 02:55:12;;;;;;;17.70;9.30;;;;;;;2.67;100.00;101568.18;107260;1265;70215;-75
2023/01/27 02:57:40;;;;;;;18.10;9.60;;;;;;;2.69;100.00;101571.03;107697;1259;71465;-75
2023/01/27 03:00:08;;;;;;;17.30;8.50;;;;;;;2.70;100.00;101576.94;107693;1259;61264;-75
2023/01/27 03:02:35;;;;;;;14.10;7.70;;;;;;;2.67;100.00;101580.75;107318;1259;59223;-75
2023/01/27 03:05:02;;;;;;;16.70;8.80;;;;;;;2.65;100.00;101589.77;107828;1260;73764;-76
2023/01/27 03:07:30;;;;;;;15.70;8.60;;;;;;;2.64;100.00;101591.45;107005;1259;70023;-75
2023/01/27 03:09:57;;;;;;;16.90;9.10;;;;;;;2.64;100.00;101592.52;107619;1259;72455;-75
2023/01/27 03:12:24;;;;;;;18.10;8.50;;;;;;;2.64;100.00;101588.83;107493;1259;61040;-76
2023/01/27 03:20:23;;;;;;;16.00;7.90;;;;;;;2.63;100.00;101588.56;107215;1259;70480;-75
2023/01/27 03:22:50;;;;;;;16.70;8.70;;;;;;;2.61;100.00;101593.77;107216;1260;73034;-75
2023/01/27 03:25:17;;;;;;;15.90;8.50;;;;;;;2.60;100.00;101592.77;108499;1259;59257;-75
2023/01/27 03:27:44;;;;;;;16.50;9.00;;;;;;;2.60;100.00;101597.63;108694;1259;59428;-75
2023/01/27 03:30:11;;;;;;;14.30;7.40;;;;;;;2.62;100.00;101596.49;107455;1261;73557;-76
2023/01/27 03:32:45;;;;;;;15.60;8.40;;;;;;;2.62;100.00;101596.67;106937;1259;69966;-74
2023/01/27 03:35:16;;;;;;;15.70;8.30;;;;;;;2.62;100.00;101595.23;107796;1259;71470;-75
2023/01/27 03:46:17;;;;;;;14.90;8.50;;;;;;;2.68;100.00;101598.89;105510;1259;2588959;-76
2023/01/27 03:48:51;;;;;;;17.50;8.60;;;;;;;2.66;100.00;101597.23;106914;1259;72827;-75
2023/01/27 03:51:19;;;;;;;14.00;7.90;;;;;;;2.67;100.00;101597.52;106771;1259;61607;-76
2023/01/27 03:53:46;;;;;;;17.70;8.60;;;;;;;2.67;100.00;101596.11;107083;1259;61306;-75
2023/01/27 03:56:15;;;;;;;14.50;8.00;;;;;;;2.68;100.00;101596.64;107017;1259;73552;-76
2023/01/27 03:58:42;;;;;;;17.30;8.70;;;;;;;2.68;100.00;101595.53;107381;1259;71292;-76
2023/01/27 04:01:20;;;;;;;13.60;7.50;;;;;;;2.70;100.00;101598.23;106870;1259;72229;-75
2023/01/27 04:06:55;;;;;;;17.70;9.20;;;;;;;2.72;100.00;101593.91;106803;1259;61367;-75
2023/01/27 04:09:26;;;;;;;14.40;7.90;;;;;;;2.77;100.00;101594.44;107103;1265;73806;-76
2023/01/27 04:11:55;;;;;;;17.20;8.40;;;;;;;2.80;100.00;101591.58;106892;1264;71380;-77
2023/01/27 04:14:33;;;;;;;14.50;7.40;;;;;;;2.81;100.00;101596.44;106552;1259;71486;-76
2023/01/27 04:17:11;;;;;;;14.10;7.40;;;;;;;2.79;100.00;101597.77;107094;1259;61356;-73
2023/01/27 04:19:38;;;;;;;13.60;7.10;;;;;;;2.79;100.00;101601.65;106881;1259;61777;-76
2023/01/27 04:22:07;;;;;;;12.30;7.00;;;;;;;2.78;100.00;101602.40;106743;1260;73174;-75
2023/01/27 04:24:34;;;;;;;12.00;6.70;;;;;;;2.78;100.00;101602.40;107214;1259;71261;-76
2023/01/27 04:27:08;;;;;;;13.20;7.20;;;;;;;2.77;100.00;101608.02;107390;1259;73026;-76
2023/01/27 04:29:39;;;;;;;12.20;7.20;;;;;;;2.78;100.00;101611.67;106919;1259;61116;-76
2023/01/27 04:32:08;;;;;;;13.40;6.90;;;;;;;2.80;100.00;101613.58;106962;1259;62552;-77
2023/01/27 04:34:36;;;;;;;10.60;6.20;;;;;;;2.79;100.00;101619.59;106690;1259;73389;-76
2023/01/27 04:37:05;;;;;;;12.60;6.90;;;;;;;2.79;100.00;101617.54;107127;1264;71327;-75
2023/01/27 04:39:33;;;;;;;11.80;6.80;;;;;;;2.79;100.00;101618.05;106895;1265;73083;-76
2023/01/27 04:42:00;;;;;;;13.70;6.80;;;;;;;2.79;100.00;101623.66;106989;1260;61356;-75
2023/01/27 04:44:27;;;;;;;12.70;7.40;;;;;;;2.77;100.00;101623.77;107026;1265;59714;-75
2023/01/27 04:46:54;;;;;;;10.20;6.10;;;;;;;2.77;100.00;101625.00;107096;1259;74404;-74
2023/01/27 04:49:21;;;;;;;12.00;6.50;;;;;;;2.75;100.00;101630.87;106715;1259;69645;-75
2023/01/27 04:51:49;;;;;;;10.40;6.40;;;;;;;2.76;100.00;101635.00;106923;1259;71575;-75
2023/01/27 04:54:16;;;;;;;13.30;6.70;;;;;;;2.78;100.00;101638.56;106788;1264;61128;-74
2023/01/27 04:56:55;;;;;;;12.00;6.60;;;;;;;2.82;100.00;101635.30;107033;1259;61253;-74
2023/01/27 04:59:22;;;;;;;12.30;6.70;;;;;;;2.86;100.00;101636.09;106840;1259;74145;-76
2023/01/27 05:01:49;;;;;;;9.00;5.60;;;;;;;2.88;100.00;101638.06;107160;1260;69640;-75
2023/01/27 05:04:16;;;;;;;10.30;5.70;;;;;;;2.88;100.00;101638.98;107064;1259;72377;-75
2023/01/27 05:06:44;;;;;;;9.20;5.90;;;;;;;2.89;100.00;101643.41;106960;1259;62117;-75
2023/01/27 05:09:11;;;;;;;8.40;5.30;;;;;;;2.89;100.00;101646.21;107206;1259;61258;-75
2023/01/27 05:11:40;;;;;;;10.50;6.20;;;;;;;2.91;100.00;101649.96;106966;1263;73210;-75
2023/01/27 05:14:07;;;;;;;9.40;5.50;;;;;;;2.92;100.00;101646.91;106983;1259;69082;-74
2023/01/27 05:16:37;;;;;;;9.70;6.20;;;;;;;2.97;100.00;101653.72;106802;1259;72393;-74
2023/01/27 05:19:04;;;;;;;10.20;6.20;;;;;;;3.02;100.00;101654.77;107102;1259;61296;-75
2023/01/27 05:21:34;;;;;;;8.20;5.30;;;;;;;3.08;100.00;101656.11;106922;1258;61196;-75
2023/01/27 05:24:01;;;;;;;8.00;5.10;;;;;;;3.10;100.00;101654.11;106959;1263;74582;-75
2023/01/27 05:26:28;;;;;;;8.00;5.00;;;;;;;3.13;100.00;101659.30;107122;1259;70459;-74
2023/01/27 05:28:57;;;;;;;9.20;5.90;;;;;;;3.14;100.00;101661.36;106922;1259;71137;-74
2023/01/27 05:31:26;;;;;;;8.20;5.40;;;;;;;3.15;100.00;101663.15;107074;1261;60913;-74
2023/01/27 05:33:55;;;;;;;9.10;5.60;;;;;;;3.19;100.00;101666.05;106985;1260;59838;-74
2023/01/27 05:36:23;;;;;;;8.60;5.30;;;;;;;3.21;100.00;101666.06;107011;1259;74745;-75
2023/01/27 05:38:50;;;;;;;9.40;5.90;;;;;;;3.25;100.00;101670.38;107172;1259;69334;-74
2023/01/27 05:41:18;;;;;;;7.70;4.90;;;;;;;3.28;100.00;101672.64;106926;1263;71736;-74
2023/01/27 05:43:50;;;;;;;7.90;5.00;;;;;;;3.29;100.00;101673.83;106766;1265;63063;-75
2023/01/27 05:46:19;;;;;;;7.90;4.80;;;;;;;3.30;100.00;101672.16;107341;1259;60469;-73
2023/01/27 05:48:49;;;;;;;8.70;5.20;;;;;;;3.31;100.00;101674.91;107325;1260;73209;-76
2023/01/27 05:51:18;;;;;;;8.20;5.30;;;;;;;3.33;100.00;101680.36;106913;1267;70128;-73
2023/01/27 05:53:46;;;;;;;7.50;4.90;;;;;;;3.34;100.00;101678.69;106967;1264;72659;-75
2023/01/27 05:56:15;;;;;;;8.00;5.30;;;;;;;3.37;100.00;101682.71;108482;1259;59977;-74
2023/01/27 05:58:43;;;;;;;6.60;4.70;;;;;;;3.38;100.00;101683.52;108615;1259;60039;-74
2023/01/27 06:01:18;;;;;;;6.70;4.40;;;;;;;3.37;100.00;101685.27;108628;1260;73529;-75
2023/01/27 06:03:46;;;;;;;7.90;4.70;;;;;;;3.40;100.00;101692.08;108709;1259;70246;-75
2023/01/27 06:06:14;;;;;;;6.40;4.20;;;;;;;3.43;100.00;101694.86;108766;1260;70512;-75
2023/01/27 06:08:41;;;;;;;6.60;4.30;;;;;;;3.45;100.00;101697.02;108747;1263;60934;-75
2023/01/27 06:11:08;;;;;;;7.80;4.50;;;;;;;3.48;100.00;101700.13;106913;1259;60485;-76
2023/01/27 06:13:37;;;;;;;6.20;4.10;;;;;;;3.48;100.00;101703.27;106429;1263;74465;-74
2023/01/27 06:16:07;;;;;;;6.30;4.00;;;;;;;3.49;100.00;101707.39;106632;1261;71053;-76
2023/01/27 06:18:34;;;;;;;5.30;3.70;;;;;;;3.50;100.00;101706.44;106541;1260;71532;-74
2023/01/27 06:21:03;;;;;;;5.00;3.30;;;;;;;3.50;100.00;101704.57;106257;1265;61251;-75
2023/01/27 06:23:30;;;;;;;5.10;3.30;;;;;;;3.48;100.00;101704.14;106339;1266;61213;-75
2023/01/27 06:26:08;;;;;;;4.80;3.30;;;;;;;3.49;100.00;101708.33;106540;1259;74800;-75
2023/01/27 06:28:38;;;;;;;6.60;3.40;;;;;;;3.50;100.00;101710.16;106548;1260;71546;-75
2023/01/27 06:31:20;;;;;;;6.30;3.40;;;;;;;3.47;100.00;101707.73;106337;1262;72529;-76
2023/01/27 06:33:48;;;;;;;6.90;3.90;;;;;;;3.47;100.00;101710.69;106617;1261;61737;-76
2023/01/27 06:36:18;;;;;;;4.80;3.10;;;;;;;3.48;100.00;101709.39;106783;1258;61077;-74
2023/01/27 06:38:46;;;;;;;5.10;3.10;;;;;;;3.48;100.00;101711.48;106277;1265;74422;-75
2023/01/27 06:41:13;;;;;;;4.10;2.90;;;;;;;3.49;100.00;101711.80;106381;1265;71348;-75
2023/01/27 06:43:40;;;;;;;4.20;2.60;;;;;;;3.47;100.00;101711.90;106690;1265;72472;-75
2023/01/27 06:46:07;;;;;;;5.90;3.00;;;;;;;3.47;100.00;101711.89;106678;1259;60598;-74
2023/01/27 06:48:34;;;;;;;4.90;2.90;;;;;;;3.45;100.00;101711.54;106550;1260;61250;-75
2023/01/27 06:51:01;;;;;;;4.50;2.60;;;;;;;3.45;100.00;101713.30;106504;1261;73167;-76
2023/01/27 06:53:30;;;;;;;3.90;2.40;;;;;;;3.44;100.00;101717.68;106542;1259;72436;-77
2023/01/27 06:55:59;;;;;;;3.70;2.10;;;;;;;3.41;100.00;101715.29;106423;1261;70992;-74
2023/01/27 06:58:29;;;;;;;4.80;2.20;;;;;;;3.40;100.00;101722.15;106440;1263;61366;-77
2023/01/27 07:00:56;;;;;;;3.70;2.20;;;;;;;3.41;100.00;101725.81;106440;1263;61256;-77
2023/01/27 07:03:23;;;;;;;3.40;2.20;;;;;;;3.42;100.00;101725.91;106714;1260;73542;-74
2023/01/27 07:05:51;;;;;;;3.80;2.10;;;;;;;3.45;100.00;101727.30;106700;1260;71229;-75
2023/01/27 07:08:18;;;;;;;2.90;1.90;;;;;;;3.47;100.00;101731.15;106163;1266;71649;-75
2023/01/27 07:10:47;;;;;;;4.00;1.90;;;;;;;3.47;100.00;101731.31;105913;1264;61283;-78
2023/01/27 07:13:14;;;;;;;2.90;2.10;;;;;;;3.48;100.00;101734.23;106254;1263;61247;-78
2023/01/27 07:15:42;;;;;;;2.40;1.80;;;;;;;3.49;100.00;101737.68;106175;1263;73290;-76
2023/01/27 07:18:11;;;;;;;2.90;1.60;;;;;;;3.51;100.00;101738.61;106122;1259;70384;-79
2023/01/27 07:20:39;;;;;;;3.00;1.50;;;;;;;3.49;100.00;101746.92;106105;1263;71004;-76
2023/01/27 07:23:06;;;;;;;3.10;1.50;;;;;;;3.48;100.00;101753.32;106187;1265;62147;-76
2023/01/27 07:25:36;;;;;;;3.10;1.80;;;;;;;3.47;100.00;101751.96;106251;1259;61136;-75
2023/01/27 07:28:04;;;;;;;3.30;1.80;;;;;;;3.49;100.00;101757.83;106360;1265;74386;-76
2023/01/27 07:30:34;;;;;;;4.10;1.50;;;;;;;3.49;100.00;101760.28;106273;1263;71276;-78
2023/01/27 07:33:03;;;;;;;3.60;1.80;;;;;;;3.47;100.00;101762.95;106354;1263;72535;-75
2023/01/27 07:35:30;;;;;;;2.50;1.70;;;;;;;3.49;100.00;101768.48;106274;1259;61779;-77
2023/01/27 07:37:57;;;;;;;2.80;1.60;;;;;;;3.51;100.00;101766.06;106264;1261;61258;-75
2023/01/27 07:40:24;;;;;;;3.40;1.60;;;;;;;3.53;100.00;101772.91;106358;1259;74727;-75
2023/01/27 07:42:51;;;;;;;2.80;1.80;;;;;;;3.54;100.00;101774.62;106209;1263;69818;-76
2023/01/27 07:45:18;;;;;;;2.90;1.70;;;;;;;3.51;100.00;101774.06;106155;1265;71998;-76
2023/01/27 07:47:47;;;;;;;4.10;1.80;;;;;;;3.50;100.00;101773.60;106095;1261;61251;-76
2023/01/27 07:50:14;;;;;;;2.50;1.60;;;;;;;3.51;100.00;101774.82;106126;1260;61366;-77
2023/01/27 07:52:45;;;;;;;3.10;1.90;;;;;;;3.53;100.00;101781.84;106042;1264;74643;-80
2023/01/27 07:55:12;;;;;;;3.20;1.90;;;;;;;3.54;100.00;101783.52;106431;1259;69986;-78
2023/01/27 07:57:39;;;;;;;3.20;2.00;;;;;;;3.55;100.00;101783.82;106136;1259;72620;-77
2023/01/27 08:00:07;;;;;;;4.20;1.90;;;;;;;3.55;100.00;101790.77;106523;1260;62046;-77
2023/01/27 08:02:34;;;;;;;3.80;1.70;;;;;;;3.56;100.00;101797.89;106204;1264;62837;-78
2023/01/27 08:05:01;;;;;;;3.50;1.70;;;;;;;3.57;100.00;101798.14;106236;1261;75563;-78
2023/01/27 08:07:28;;;;;;;3.30;1.50;;;;;;;3.57;100.00;101800.96;106339;1261;72439;-77
2023/01/27 08:09:56;;;;;;;2.50;1.60;;;;;;;3.56;100.00;101801.41;106050;1260;71173;-77
2023/01/27 08:12:22;;;;;;;2.30;1.20;;;;;;;3.56;100.00;101804.67;106246;1264;61749;-77
2023/01/27 08:14:50;;;;;;;2.80;1.30;;;;;;;3.57;100.00;101807.60;106123;1263;61252;-78
2023/01/27 08:17:16;;;;;;;2.30;1.30;;;;;;;3.58;100.00;101812.23;106447;1261;74505;-76
2023/01/27 08:19:43;;;;;;;2.90;1.40;;;;;;;3.58;100.00;101817.87;106629;1263;69842;-76
2023/01/27 08:22:10;;;;;;;2.70;1.30;;;;;;;3.56;100.00;101820.63;106187;1267;72168;-76
2023/01/27 08:24:38;;;;;;;2.60;1.30;;;;;;;3.55;100.00;101823.66;106122;1259;61232;-77
2023/01/27 08:27:05;;;;;;;2.80;1.60;;;;;;;3.54;100.00;101827.73;106220;1266;61373;-78
2023/01/27 08:29:34;;;;;;;2.60;1.20;;;;;;;3.57;100.00;101827.77;105880;1265;74760;-77
2023/01/27 08:32:04;;;;;;;2.50;1.20;;;;;;;3.56;100.00;101832.36;106300;1261;72113;-76
2023/01/27 08:34:32;;;;;;;2.30;1.00;;;;;;;3.57;100.00;101832.80;106260;1260;72540;-78
2023/01/27 08:36:59;;;;;;;2.50;0.90;;;;;;;3.58;100.00;101836.95;106313;1261;62137;-77
2023/01/27 08:39:26;;;;;;;2.00;1.00;;;;;;;3.60;99.91;101847.15;106140;1259;61349;-77
2023/01/27 08:41:53;;;;;;;2.70;1.00;;;;;;;3.62;99.97;101843.34;106497;1260;74522;-77
2023/01/27 08:44:29;;;;;;;2.10;1.00;;;;;;;3.63;99.99;101845.02;106250;1260;69018;-79
2023/01/27 08:46:58;;;;;;;2.60;1.00;;;;;;;3.61;99.10;101845.68;106289;1260;71295;-78
2023/01/27 08:49:25;;;;;;;2.10;0.80;;;;;;;3.58;98.93;101847.10;106084;1261;61433;-80
2023/01/27 08:51:52;;;;;;;1.50;0.70;;;;;;;3.57;98.83;101848.55;106051;1263;61254;-78
2023/01/27 08:54:19;;;;;;;1.60;0.70;;;;;;;3.56;98.59;101846.33;106468;1260;74336;-76
2023/01/27 08:56:47;;;;;;;1.30;0.70;;;;;;;3.56;98.72;101847.73;106015;1261;69695;-78
2023/01/27 08:59:14;;;;;;;2.40;0.80;;;;;;;3.54;98.29;101851.89;106320;1260;72700;-77
2023/01/27 09:01:40;;;;;;;1.90;0.70;;;;;;;3.57;98.28;101851.31;106021;1264;61330;-76
2023/01/27 09:04:07;;;;;;;1.40;0.60;;;;;;;3.62;98.27;101853.64;106059;1267;61759;-77
2023/01/27 09:06:34;;;;;;;1.10;0.60;;;;;;;3.67;98.16;101857.14;106177;1261;73172;-77
2023/01/27 09:09:13;;;;;;;1.20;0.70;;;;;;;3.73;98.08;101856.60;106134;1261;70262;-76
2023/01/27 09:11:41;;;;;;;2.10;0.60;;;;;;;3.78;98.02;101857.11;106200;1260;73608;-78
2023/01/27 09:14:09;;;;;;;1.80;0.70;;;;;;;3.81;97.53;101866.04;106371;1259;61280;-79
2023/01/27 09:16:36;;;;;;;2.40;0.80;;;;;;;3.82;97.24;101868.04;106141;1260;61296;-78
2023/01/27 09:19:03;;;;;;;2.50;0.70;;;;;;;3.82;96.79;101871.90;106188;1260;73174;-80
2023/01/27 09:21:33;;;;;;;1.20;0.60;;;;;;;3.84;96.74;101875.63;106323;1267;69908;-79
2023/01/27 09:24:01;;;;;;;2.50;0.70;;;;;;;3.84;96.23;101880.37;106335;1260;71155;-78
2023/01/27 09:26:28;;;;;;;1.20;0.70;;;;;;;3.85;96.18;101875.38;106131;1260;61428;-80
2023/01/27 09:28:55;;;;;;;1.60;0.70;;;;;;;3.92;96.41;101875.30;106501;1259;61277;-77
2023/01/27 09:31:22;;;;;;;1.60;0.60;;;;;;;3.95;95.90;101879.30;106118;1261;74685;-78
2023/01/27 09:33:49;;;;;;;2.50;0.70;;;;;;;3.97;95.85;101878.98;106262;1266;71614;-77
2023/01/27 09:36:20;;;;;;;2.90;0.90;;;;;;;3.96;95.36;101877.62;106122;1261;71732;-78
2023/01/27 09:38:57;;;;;;;1.50;0.70;;;;;;;3.97;95.21;101883.66;106244;1261;61200;-76
2023/01/27 09:41:58;;;;;;;2.20;0.80;;;;;;;4.01;95.50;101886.04;106238;1260;61367;-76
2023/01/27 09:44:56;;;;;;;3.10;1.00;;;;;;;4.00;95.11;101888.92;106314;1259;73856;-78
2023/01/27 09:47:41;;;;;;;2.00;0.60;;;;;;;3.99;94.98;101888.12;106068;1261;69043;-77
2023/01/27 09:51:05;;;;;;;1.80;0.80;;;;;;;3.98;94.85;101890.06;106917;1261;71828;-77
2023/01/27 09:53:56;;;;;;;2.50;0.90;;;;;;;4.01;95.04;101892.71;106035;1261;61657;-77
2023/01/27 09:56:57;;;;;;;2.80;0.80;;;;;;;4.08;95.44;101888.76;106119;1263;61253;-78
2023/01/27 09:59:43;;;;;;;2.50;0.90;;;;;;;4.13;95.35;101885.05;106297;1261;73509;-78
2023/01/27 10:02:32;;;;;;;3.70;0.90;;;;;;;4.17;95.28;101888.13;106175;1260;71496;-76
2023/01/27 10:05:20;;;;;;;3.20;0.90;;;;;;;4.18;94.71;101891.04;106052;1263;71380;-76
2023/01/27 10:07:50;;;;;;;2.70;0.70;;;;;;;4.21;94.73;101891.54;106447;1259;61281;-76
2023/01/27 10:10:35;;;;;;;2.40;0.70;;;;;;;4.22;94.62;101887.58;106155;1261;62453;-78
2023/01/27 10:13:18;;;;;;;2.20;0.70;;;;;;;4.22;94.24;101886.88;106243;1260;73515;-78
2023/01/27 10:15:51;;;;;;;1.90;0.80;;;;;;;4.23;94.14;101886.52;106103;1261;70776;-78
2023/01/27 10:19:00;;;;;;;2.30;0.60;;;;;;;4.26;94.19;101888.22;106161;1260;71463;-75
2023/01/27 10:21:45;;;;;;;1.60;0.60;;;;;;;4.31;94.21;101886.11;106381;1260;61295;-78
2023/01/27 10:24:52;;;;;;;2.40;0.80;;;;;;;4.33;93.67;101884.76;106317;1259;61379;-77
2023/01/27 10:27:22;;;;;;;3.90;1.40;;;;;;;4.38;93.71;101879.55;106321;1260;73754;-78
2023/01/27 10:29:57;;;;;;;1.60;0.80;;;;;;;4.40;93.08;101878.70;107966;1261;72098;-78
2023/01/27 10:32:40;;;;;;;2.10;0.80;;;;;;;4.40;92.72;101879.02;107978;1259;71529;-79
2023/01/27 10:35:18;;;;;;;2.40;0.80;;;;;;;4.38;91.93;101880.55;107868;1260;61142;-77
2023/01/27 10:37:58;;;;;;;2.90;0.80;;;;;;;4.37;92.12;101880.97;108053;1260;61168;-80
2023/01/27 10:40:40;;;;;;;2.00;0.70;;;;;;;4.37;91.88;101882.73;108175;1259;73452;-78
2023/01/27 10:43:40;;;;;;;1.50;0.60;;;;;;;4.39;91.61;101888.38;107863;1260;69501;-78
2023/01/27 10:46:19;;;;;;;2.50;0.60;;;;;;;4.38;91.37;101890.21;106267;1260;71174;-79
2023/01/27 10:49:25;;;;;;;2.40;0.80;;;;;;;4.37;91.60;101893.40;106386;1264;61801;-77
2023/01/27 10:52:07;;;;;;;2.10;0.80;;;;;;;4.36;91.53;101898.04;106112;1261;61416;-79
2023/01/27 10:54:51;;;;;;;2.10;0.70;;;;;;;4.34;91.34;101901.30;107805;1260;74493;-78
2023/01/27 10:57:34;;;;;;;1.50;0.60;;;;;;;4.30;90.81;101898.78;108658;1260;69982;-77
2023/01/27 11:00:42;;;;;;;2.40;1.00;;;;;;;4.24;90.78;101897.43;108008;1259;71458;-78
2023/01/27 11:03:51;;;;;;;1.70;0.70;;;;;;;4.23;91.06;101894.75;107342;1267;60371;-78
2023/01/27 11:06:24;;;;;;;2.70;1.00;;;;;;;4.19;90.65;101894.30;107142;1267;59784;-79
2023/01/27 11:08:55;;;;;;;2.20;0.60;;;;;;;4.19;90.76;101894.98;106592;1260;74895;-77
2023/01/27 11:14:15;;;;;;;2.20;0.70;;;;;;;4.28;90.57;101900.34;106470;1260;71539;-78
2023/01/27 11:16:48;;;;;;;2.00;0.70;;;;;;;4.22;89.72;101900.05;106208;1260;61132;-77
2023/01/27 11:19:23;;;;;;;2.00;0.90;;;;;;;4.18;89.81;101898.55;106153;1260;61318;-79
2023/01/27 11:21:53;;;;;;;1.90;0.70;;;;;;;4.18;89.99;101897.19;106409;1259;73716;-80
2023/01/27 11:25:02;;;;;;;3.40;1.00;;;;;;;4.20;90.16;101897.02;106602;1259;72416;-77
2023/01/27 11:27:47;;;;;;;1.00;0.50;;;;;;;4.21;89.72;101896.63;105940;1261;73860;-78
2023/01/27 11:30:21;;;;;;;2.00;0.80;;;;;;;4.20;89.13;101893.69;106357;1263;61343;-75
2023/01/27 11:33:08;;;;;;;1.50;0.40;;;;;;;4.22;88.99;101892.71;106435;1260;61365;-76
2023/01/27 11:35:35;;;;;;;1.50;0.60;;;;;;;4.22;88.54;101892.00;106421;1261;73234;-77
2023/01/27 11:38:02;;;;;;;1.30;0.60;;;;;;;4.21;88.48;101894.14;106342;1259;71032;-78
2023/01/27 11:40:42;;;;;;;3.80;0.80;;;;;;;4.23;88.41;101895.27;105994;1260;71558;-78
2023/01/27 11:43:16;;;;;;;2.10;0.70;;;;;;;4.23;88.29;101888.95;106142;1259;61376;-77
2023/01/27 11:45:45;;;;;;;1.80;0.60;;;;;;;4.27;88.53;101896.55;106671;1259;61167;-78
2023/01/27 11:48:15;;;;;;;1.10;0.40;;;;;;;4.32;88.30;101891.35;106490;1259;73708;-78
2023/01/27 11:50:43;;;;;;;2.50;1.60;;;;;;;4.35;87.85;101892.17;106372;1259;71095;-77
2023/01/27 11:53:21;;;;;;;2.50;0.80;;;;;;;4.37;87.99;101893.94;106354;1261;72717;-76
2023/01/27 11:55:54;;;;;;;2.60;0.50;;;;;;;4.36;87.57;101890.48;106278;1260;61180;-78
2023/01/27 11:58:32;;;;;;;2.00;0.70;;;;;;;4.37;87.90;101890.95;106287;1259;61283;-78
2023/01/27 12:01:04;;;;;;;1.80;0.80;;;;;;;4.39;87.75;101892.91;106347;1260;76021;-75
2023/01/27 12:03:58;;;;;;;2.00;0.80;;;;;;;4.43;87.82;101894.55;106444;1260;70073;-76
2023/01/27 12:06:54;;;;;;;3.80;0.90;;;;;;;4.49;87.90;101891.20;106355;1261;72466;-75
2023/01/27 12:09:33;;;;;;;1.80;0.70;;;;;;;4.46;87.06;101886.85;106475;1264;61281;-72